TRA5963 EHEH-EKCH
Flight info
| Callsign | TRA5963 |
|---|---|
| Flight time | 1h 5m |
| Altitude | 33000 |
| Route | VELNI Y869 SUMOP L179 MEVEL Y850 BASUM DCT MAKEL N851 GESKA Z711 MONAK |
| Aircraft | B738/M-SDE2E3FGHIRWXY/LB1 |
Departure
| Time | 2026-04-26 17:57 |
|---|---|
| Airport | Eindhoven Airport (EHEH) |
Arrival
| Time | 2026-04-26 19:02 |
|---|---|
| Airport | Copenhagen Kastrup Airport (EKCH) |
| Time | Latitude | Longitude | Altitude | Speed | Heading |
|---|---|---|---|---|---|
| 2026-04-26 17:24 | 51.45823 | 5.39012 | 69 ft | 0 kts | 125° |
| 2026-04-26 17:45 | 51.45837 | 5.38981 | 61 ft | 4 kts | 132° |
| 2026-04-26 17:46 | 51.45857 | 5.38952 | 66 ft | 4 kts | 148° |
| 2026-04-26 17:46 | 51.45880 | 5.38938 | 66 ft | 4 kts | 192° |
| 2026-04-26 17:46 | 51.45889 | 5.38942 | 63 ft | 1 kts | 214° |
| 2026-04-26 17:49 | 51.45883 | 5.38935 | 67 ft | 3 kts | 214° |
| 2026-04-26 17:49 | 51.45857 | 5.38907 | 67 ft | 8 kts | 214° |
| 2026-04-26 17:49 | 51.45802 | 5.38846 | 69 ft | 9 kts | 219° |
| 2026-04-26 17:49 | 51.45801 | 5.38755 | 72 ft | 9 kts | 299° |
| 2026-04-26 17:50 | 51.45840 | 5.38668 | 69 ft | 11 kts | 306° |
| 2026-04-26 17:50 | 51.45888 | 5.38558 | 68 ft | 13 kts | 305° |
| 2026-04-26 17:50 | 51.45948 | 5.38423 | 76 ft | 17 kts | 307° |
| 2026-04-26 17:50 | 51.45994 | 5.38294 | 71 ft | 11 kts | 263° |
| 2026-04-26 17:51 | 51.45940 | 5.38210 | 71 ft | 11 kts | 213° |
| 2026-04-26 17:51 | 51.45864 | 5.38127 | 74 ft | 15 kts | 214° |
| 2026-04-26 17:51 | 51.45765 | 5.38017 | 65 ft | 19 kts | 214° |
| 2026-04-26 17:51 | 51.45648 | 5.37886 | 65 ft | 21 kts | 216° |
| 2026-04-26 17:52 | 51.45526 | 5.37748 | 69 ft | 22 kts | 215° |
| 2026-04-26 17:52 | 51.45403 | 5.37609 | 71 ft | 21 kts | 215° |
| 2026-04-26 17:52 | 51.45283 | 5.37475 | 69 ft | 21 kts | 215° |
| 2026-04-26 17:52 | 51.45167 | 5.37344 | 65 ft | 20 kts | 215° |
| 2026-04-26 17:53 | 51.45055 | 5.37220 | 72 ft | 19 kts | 214° |
| 2026-04-26 17:53 | 51.44937 | 5.37089 | 70 ft | 22 kts | 215° |
| 2026-04-26 17:53 | 51.44806 | 5.36941 | 69 ft | 24 kts | 215° |
| 2026-04-26 17:54 | 51.44537 | 5.36641 | 70 ft | 23 kts | 215° |
| 2026-04-26 17:54 | 51.44410 | 5.36499 | 67 ft | 22 kts | 215° |
| 2026-04-26 17:54 | 51.44286 | 5.36360 | 73 ft | 21 kts | 215° |
| 2026-04-26 17:54 | 51.44166 | 5.36225 | 71 ft | 21 kts | 215° |
| 2026-04-26 17:55 | 51.44052 | 5.36096 | 71 ft | 17 kts | 214° |
| 2026-04-26 17:55 | 51.43961 | 5.36135 | 70 ft | 15 kts | 127° |
| 2026-04-26 17:55 | 51.43962 | 5.36274 | 69 ft | 14 kts | 40° |
| 2026-04-26 17:55 | 51.44049 | 5.36371 | 66 ft | 19 kts | 34° |
| 2026-04-26 17:56 | 51.44349 | 5.36706 | 68 ft | 87 kts | 35° |
| 2026-04-26 17:56 | 51.45922 | 5.38477 | 389 ft | 164 kts | 36° |
| 2026-04-26 17:57 | 51.47787 | 5.40565 | 1907 ft | 169 kts | 36° |
| 2026-04-26 17:57 | 51.48822 | 5.41725 | 2463 ft | 190 kts | 36° |
| 2026-04-26 17:57 | 51.49942 | 5.42995 | 3005 ft | 203 kts | 36° |
| 2026-04-26 17:57 | 51.51046 | 5.44509 | 3486 ft | 216 kts | 53° |
| 2026-04-26 17:58 | 51.50582 | 5.51971 | 5491 ft | 245 kts | 107° |
| 2026-04-26 17:59 | 51.49507 | 5.57258 | 7038 ft | 254 kts | 105° |
| 2026-04-26 17:59 | 51.49062 | 5.60098 | 7509 ft | 271 kts | 100° |
| 2026-04-26 17:59 | 51.48682 | 5.63129 | 8084 ft | 283 kts | 100° |
| 2026-04-26 17:59 | 51.48389 | 5.66305 | 8725 ft | 291 kts | 88° |
| 2026-04-26 18:00 | 51.48592 | 5.69548 | 9530 ft | 293 kts | 81° |
| 2026-04-26 18:00 | 51.48881 | 5.72770 | 10295 ft | 298 kts | 80° |
| 2026-04-26 18:00 | 51.49186 | 5.76140 | 10731 ft | 315 kts | 80° |
| 2026-04-26 18:00 | 51.49504 | 5.79754 | 10920 ft | 338 kts | 80° |
| 2026-04-26 18:01 | 51.49829 | 5.83581 | 11398 ft | 350 kts | 81° |
| 2026-04-26 18:01 | 51.50149 | 5.87480 | 12118 ft | 354 kts | 81° |
| 2026-04-26 18:01 | 51.50462 | 5.91379 | 12913 ft | 356 kts | 81° |
| 2026-04-26 18:01 | 51.50777 | 5.95348 | 13714 ft | 360 kts | 81° |
| 2026-04-26 18:02 | 51.51092 | 5.99361 | 14453 ft | 364 kts | 81° |
| 2026-04-26 18:02 | 51.51200 | 6.00734 | 14691 ft | 366 kts | 81° |
| 2026-04-26 18:02 | 51.51731 | 6.07539 | 15879 ft | 373 kts | 81° |
| 2026-04-26 18:02 | 51.52056 | 6.11714 | 16593 ft | 377 kts | 81° |
| 2026-04-26 18:03 | 51.52381 | 6.15924 | 17296 ft | 382 kts | 81° |
| 2026-04-26 18:03 | 51.52706 | 6.20152 | 17989 ft | 386 kts | 81° |
| 2026-04-26 18:03 | 51.53101 | 6.24451 | 18662 ft | 390 kts | 78° |
| 2026-04-26 18:03 | 51.53580 | 6.28785 | 19265 ft | 395 kts | 77° |
| 2026-04-26 18:04 | 51.54078 | 6.33139 | 19869 ft | 398 kts | 77° |
| 2026-04-26 18:04 | 51.54568 | 6.37491 | 20462 ft | 402 kts | 77° |
| 2026-04-26 18:04 | 51.55055 | 6.41938 | 21046 ft | 406 kts | 77° |
| 2026-04-26 18:05 | 51.56020 | 6.50981 | 22187 ft | 414 kts | 77° |
| 2026-04-26 18:05 | 51.56616 | 6.55527 | 22731 ft | 416 kts | 70° |
| 2026-04-26 18:05 | 51.57684 | 6.59858 | 23277 ft | 416 kts | 60° |
| 2026-04-26 18:05 | 51.59186 | 6.63825 | 23829 ft | 414 kts | 50° |
| 2026-04-26 18:06 | 51.60945 | 6.67519 | 24236 ft | 417 kts | 48° |
| 2026-04-26 18:06 | 51.62707 | 6.71175 | 24276 ft | 418 kts | 49° |
| 2026-04-26 18:06 | 51.64471 | 6.74927 | 24284 ft | 419 kts | 49° |
| 2026-04-26 18:06 | 51.66208 | 6.78694 | 24300 ft | 419 kts | 50° |
| 2026-04-26 18:07 | 51.67941 | 6.82475 | 24288 ft | 419 kts | 50° |
| 2026-04-26 18:07 | 51.69687 | 6.86282 | 24419 ft | 426 kts | 50° |
| 2026-04-26 18:07 | 51.71450 | 6.90128 | 24927 ft | 426 kts | 50° |
| 2026-04-26 18:07 | 51.72023 | 6.91381 | 25126 ft | 425 kts | 50° |
| 2026-04-26 18:08 | 51.74945 | 6.97773 | 26010 ft | 427 kts | 49° |
| 2026-04-26 18:08 | 51.76716 | 7.01653 | 26425 ft | 430 kts | 49° |
| 2026-04-26 18:08 | 51.78496 | 7.05560 | 26830 ft | 434 kts | 49° |
| 2026-04-26 18:08 | 51.80294 | 7.09514 | 27257 ft | 436 kts | 49° |
| 2026-04-26 18:09 | 51.81487 | 7.12139 | 27542 ft | 438 kts | 49° |
| 2026-04-26 18:09 | 51.83888 | 7.17430 | 28095 ft | 442 kts | 49° |
| 2026-04-26 18:09 | 51.85728 | 7.21428 | 28443 ft | 444 kts | 46° |
| 2026-04-26 18:09 | 51.87776 | 7.25177 | 28821 ft | 443 kts | 42° |
| 2026-04-26 18:10 | 51.89194 | 7.27566 | 29089 ft | 444 kts | 41° |
| 2026-04-26 18:10 | 51.91365 | 7.31132 | 29568 ft | 444 kts | 40° |
| 2026-04-26 18:10 | 51.93538 | 7.34698 | 30175 ft | 441 kts | 40° |
| 2026-04-26 18:11 | 51.97858 | 7.41909 | 30517 ft | 447 kts | 41° |
| 2026-04-26 18:11 | 51.99972 | 7.45496 | 31049 ft | 443 kts | 41° |
| 2026-04-26 18:11 | 52.02085 | 7.49104 | 31656 ft | 437 kts | 41° |
| 2026-04-26 18:11 | 52.04175 | 7.52677 | 32200 ft | 434 kts | 41° |
| 2026-04-26 18:12 | 52.06255 | 7.56231 | 32617 ft | 434 kts | 41° |
| 2026-04-26 18:12 | 52.08347 | 7.59806 | 32898 ft | 436 kts | 41° |
| 2026-04-26 18:12 | 52.10415 | 7.63339 | 33255 ft | 436 kts | 41° |
| 2026-04-26 18:13 | 52.14705 | 7.70434 | 33295 ft | 439 kts | 39° |
| 2026-04-26 18:13 | 52.19060 | 7.77332 | 33286 ft | 431 kts | 38° |
| 2026-04-26 18:14 | 52.23394 | 7.84096 | 33305 ft | 432 kts | 38° |
| 2026-04-26 18:14 | 52.27726 | 7.90895 | 33309 ft | 434 kts | 38° |
| 2026-04-26 18:15 | 52.32083 | 7.97784 | 33301 ft | 435 kts | 39° |
| 2026-04-26 18:15 | 52.36403 | 8.04650 | 33294 ft | 434 kts | 39° |
| 2026-04-26 18:16 | 52.40738 | 8.11561 | 33303 ft | 433 kts | 39° |
| 2026-04-26 18:16 | 52.47217 | 8.21925 | 33296 ft | 434 kts | 39° |
| 2026-04-26 18:17 | 52.51533 | 8.28849 | 33304 ft | 438 kts | 39° |
| 2026-04-26 18:17 | 52.55896 | 8.35874 | 33296 ft | 438 kts | 39° |
| 2026-04-26 18:18 | 52.60217 | 8.42854 | 33296 ft | 438 kts | 39° |
| 2026-04-26 18:18 | 52.64562 | 8.49892 | 33294 ft | 437 kts | 39° |
| 2026-04-26 18:19 | 52.68886 | 8.56918 | 33303 ft | 435 kts | 39° |
| 2026-04-26 18:19 | 52.73204 | 8.63950 | 33298 ft | 436 kts | 39° |
| 2026-04-26 18:20 | 52.77501 | 8.70970 | 33299 ft | 437 kts | 39° |
| 2026-04-26 18:20 | 52.81105 | 8.76872 | 33299 ft | 439 kts | 40° |
| 2026-04-26 18:21 | 52.86163 | 8.85182 | 33296 ft | 441 kts | 40° |
| 2026-04-26 18:21 | 52.90519 | 8.92364 | 33293 ft | 441 kts | 40° |
| 2026-04-26 18:22 | 52.94876 | 8.99569 | 33298 ft | 441 kts | 40° |
| 2026-04-26 18:22 | 52.99201 | 9.06743 | 33290 ft | 441 kts | 40° |
| 2026-04-26 18:23 | 53.03520 | 9.13930 | 33284 ft | 437 kts | 40° |
| 2026-04-26 18:23 | 53.07795 | 9.21061 | 33311 ft | 438 kts | 40° |
| 2026-04-26 18:24 | 53.12091 | 9.28249 | 33299 ft | 439 kts | 40° |
| 2026-04-26 18:24 | 53.16397 | 9.35477 | 33291 ft | 438 kts | 40° |
| 2026-04-26 18:25 | 53.20681 | 9.42690 | 33296 ft | 437 kts | 40° |
| 2026-04-26 18:25 | 53.24942 | 9.49884 | 33303 ft | 438 kts | 40° |
| 2026-04-26 18:26 | 53.29248 | 9.57174 | 33304 ft | 440 kts | 40° |
| 2026-04-26 18:26 | 53.33531 | 9.64451 | 33301 ft | 441 kts | 40° |
| 2026-04-26 18:27 | 53.37836 | 9.71788 | 33303 ft | 442 kts | 40° |
| 2026-04-26 18:27 | 53.42132 | 9.79135 | 33285 ft | 437 kts | 40° |
| 2026-04-26 18:28 | 53.46364 | 9.86392 | 33298 ft | 437 kts | 40° |
| 2026-04-26 18:28 | 53.50624 | 9.93715 | 33293 ft | 438 kts | 40° |
| 2026-04-26 18:29 | 53.54862 | 10.01024 | 33294 ft | 439 kts | 40° |
| 2026-04-26 18:29 | 53.59125 | 10.08402 | 33311 ft | 439 kts | 41° |
| 2026-04-26 18:30 | 53.63366 | 10.15762 | 33299 ft | 439 kts | 41° |
| 2026-04-26 18:30 | 53.67621 | 10.23170 | 33294 ft | 439 kts | 41° |
| 2026-04-26 18:31 | 53.71864 | 10.30581 | 33292 ft | 438 kts | 41° |
| 2026-04-26 18:31 | 53.76109 | 10.38018 | 33122 ft | 440 kts | 41° |
| 2026-04-26 18:32 | 53.78214 | 10.41713 | 32848 ft | 440 kts | 41° |
| 2026-04-26 18:32 | 53.80336 | 10.45445 | 32608 ft | 439 kts | 41° |
| 2026-04-26 18:32 | 53.82456 | 10.49179 | 32359 ft | 439 kts | 41° |
| 2026-04-26 18:32 | 53.84579 | 10.52926 | 32110 ft | 440 kts | 41° |
| 2026-04-26 18:33 | 53.86702 | 10.56676 | 31853 ft | 440 kts | 41° |
| 2026-04-26 18:33 | 53.88824 | 10.60432 | 31601 ft | 440 kts | 41° |
| 2026-04-26 18:33 | 53.90916 | 10.64139 | 31354 ft | 441 kts | 41° |
| 2026-04-26 18:33 | 53.93042 | 10.67913 | 31104 ft | 441 kts | 41° |
| 2026-04-26 18:34 | 53.95166 | 10.71690 | 30856 ft | 441 kts | 41° |
| 2026-04-26 18:34 | 53.97288 | 10.75469 | 30610 ft | 441 kts | 41° |
| 2026-04-26 18:34 | 53.99409 | 10.79252 | 30366 ft | 441 kts | 41° |
| 2026-04-26 18:34 | 54.01525 | 10.83031 | 30103 ft | 442 kts | 41° |
| 2026-04-26 18:35 | 54.03618 | 10.86777 | 29822 ft | 442 kts | 41° |
| 2026-04-26 18:35 | 54.05741 | 10.90581 | 29539 ft | 442 kts | 41° |
| 2026-04-26 18:35 | 54.07862 | 10.94388 | 29258 ft | 442 kts | 41° |
| 2026-04-26 18:35 | 54.09978 | 10.98193 | 28982 ft | 443 kts | 41° |
| 2026-04-26 18:36 | 54.12110 | 11.02029 | 28716 ft | 446 kts | 41° |
| 2026-04-26 18:36 | 54.14246 | 11.05880 | 28447 ft | 447 kts | 41° |
| 2026-04-26 18:36 | 54.16355 | 11.09690 | 28321 ft | 446 kts | 41° |
| 2026-04-26 18:36 | 54.18493 | 11.13561 | 28293 ft | 446 kts | 41° |
| 2026-04-26 18:37 | 54.22712 | 11.21219 | 28190 ft | 434 kts | 41° |
| 2026-04-26 18:37 | 54.24744 | 11.24929 | 28127 ft | 419 kts | 41° |
| 2026-04-26 18:37 | 54.26705 | 11.28513 | 28036 ft | 405 kts | 41° |
| 2026-04-26 18:38 | 54.28613 | 11.31997 | 27664 ft | 399 kts | 41° |
| 2026-04-26 18:38 | 54.30509 | 11.35454 | 27220 ft | 395 kts | 41° |
| 2026-04-26 18:38 | 54.32384 | 11.38874 | 26813 ft | 392 kts | 41° |
| 2026-04-26 18:38 | 54.34216 | 11.42223 | 26513 ft | 385 kts | 41° |
| 2026-04-26 18:39 | 54.36030 | 11.45550 | 26232 ft | 379 kts | 41° |
| 2026-04-26 18:39 | 54.37828 | 11.48849 | 25992 ft | 380 kts | 41° |
| 2026-04-26 18:39 | 54.39690 | 11.52253 | 25777 ft | 398 kts | 41° |
| 2026-04-26 18:39 | 54.41567 | 11.55696 | 25528 ft | 402 kts | 41° |
| 2026-04-26 18:40 | 54.43469 | 11.59206 | 25290 ft | 400 kts | 41° |
| 2026-04-26 18:40 | 54.45355 | 11.62699 | 24997 ft | 395 kts | 41° |
| 2026-04-26 18:40 | 54.47221 | 11.66159 | 24581 ft | 392 kts | 41° |
| 2026-04-26 18:40 | 54.49071 | 11.69590 | 24154 ft | 388 kts | 41° |
| 2026-04-26 18:41 | 54.50880 | 11.72948 | 23701 ft | 386 kts | 41° |
| 2026-04-26 18:41 | 54.52701 | 11.76329 | 23203 ft | 383 kts | 41° |
| 2026-04-26 18:41 | 54.54505 | 11.79686 | 22746 ft | 379 kts | 41° |
| 2026-04-26 18:41 | 54.56290 | 11.83008 | 22314 ft | 375 kts | 41° |
| 2026-04-26 18:42 | 54.58059 | 11.86307 | 21868 ft | 372 kts | 41° |
| 2026-04-26 18:42 | 54.59807 | 11.89570 | 21438 ft | 369 kts | 41° |
| 2026-04-26 18:42 | 54.61536 | 11.92732 | 21045 ft | 364 kts | 38° |
| 2026-04-26 18:42 | 54.63481 | 11.95408 | 20579 ft | 350 kts | 28° |
| 2026-04-26 18:43 | 54.65485 | 11.97716 | 20183 ft | 341 kts | 27° |
| 2026-04-26 18:43 | 54.67449 | 11.99938 | 19797 ft | 334 kts | 27° |
| 2026-04-26 18:43 | 54.69377 | 12.02120 | 19400 ft | 327 kts | 27° |
| 2026-04-26 18:43 | 54.71251 | 12.04254 | 19023 ft | 324 kts | 27° |
| 2026-04-26 18:44 | 54.73134 | 12.06408 | 18635 ft | 324 kts | 27° |
| 2026-04-26 18:44 | 54.75014 | 12.08572 | 18201 ft | 324 kts | 27° |
| 2026-04-26 18:44 | 54.76887 | 12.10736 | 17773 ft | 323 kts | 28° |
| 2026-04-26 18:44 | 54.78751 | 12.12896 | 17377 ft | 321 kts | 28° |
| 2026-04-26 18:45 | 54.80605 | 12.15051 | 16982 ft | 320 kts | 28° |
| 2026-04-26 18:45 | 54.82447 | 12.17194 | 16590 ft | 318 kts | 28° |
| 2026-04-26 18:45 | 54.84257 | 12.19302 | 16214 ft | 317 kts | 28° |
| 2026-04-26 18:45 | 54.86086 | 12.21436 | 15835 ft | 315 kts | 28° |
| 2026-04-26 18:46 | 54.87906 | 12.23562 | 15451 ft | 314 kts | 28° |
| 2026-04-26 18:46 | 54.89719 | 12.25680 | 15073 ft | 313 kts | 28° |
| 2026-04-26 18:46 | 54.91514 | 12.27782 | 14714 ft | 307 kts | 28° |
| 2026-04-26 18:46 | 54.93266 | 12.29838 | 14327 ft | 300 kts | 27° |
| 2026-04-26 18:47 | 54.94974 | 12.31845 | 13968 ft | 291 kts | 27° |
| 2026-04-26 18:47 | 54.96597 | 12.33752 | 13696 ft | 280 kts | 27° |
| 2026-04-26 18:47 | 54.98188 | 12.35623 | 13361 ft | 272 kts | 27° |
| 2026-04-26 18:47 | 54.99737 | 12.37444 | 13024 ft | 265 kts | 27° |
| 2026-04-26 18:48 | 55.01252 | 12.39219 | 12679 ft | 259 kts | 27° |
| 2026-04-26 18:48 | 55.02748 | 12.40961 | 12363 ft | 258 kts | 27° |
| 2026-04-26 18:48 | 55.04214 | 12.42667 | 12098 ft | 256 kts | 27° |
| 2026-04-26 18:48 | 55.05691 | 12.44389 | 11865 ft | 254 kts | 27° |
| 2026-04-26 18:49 | 55.07157 | 12.46100 | 11604 ft | 252 kts | 27° |
| 2026-04-26 18:49 | 55.08612 | 12.47801 | 11354 ft | 251 kts | 27° |
| 2026-04-26 18:49 | 55.10063 | 12.49499 | 11108 ft | 249 kts | 27° |
| 2026-04-26 18:49 | 55.11503 | 12.51186 | 10817 ft | 249 kts | 27° |
| 2026-04-26 18:50 | 55.12951 | 12.52882 | 10500 ft | 251 kts | 27° |
| 2026-04-26 18:50 | 55.14382 | 12.54561 | 10213 ft | 252 kts | 27° |
| 2026-04-26 18:50 | 55.15844 | 12.56279 | 9869 ft | 253 kts | 27° |
| 2026-04-26 18:50 | 55.17309 | 12.58001 | 9521 ft | 254 kts | 28° |
| 2026-04-26 18:51 | 55.18780 | 12.59733 | 9235 ft | 253 kts | 28° |
| 2026-04-26 18:51 | 55.20237 | 12.61450 | 8977 ft | 252 kts | 28° |
| 2026-04-26 18:51 | 55.21673 | 12.63144 | 8716 ft | 251 kts | 28° |
| 2026-04-26 18:51 | 55.23124 | 12.64854 | 8457 ft | 251 kts | 28° |
| 2026-04-26 18:52 | 55.24619 | 12.66400 | 8205 ft | 248 kts | 23° |
| 2026-04-26 18:52 | 55.25623 | 12.67352 | 8032 ft | 248 kts | 23° |
| 2026-04-26 18:52 | 55.27753 | 12.68580 | 7655 ft | 234 kts | 354° |
| 2026-04-26 18:52 | 55.29246 | 12.67765 | 7399 ft | 222 kts | 323° |
| 2026-04-26 18:53 | 55.30179 | 12.65741 | 7142 ft | 217 kts | 293° |
| 2026-04-26 18:53 | 55.30595 | 12.63219 | 6909 ft | 213 kts | 286° |
| 2026-04-26 18:53 | 55.30930 | 12.60693 | 6650 ft | 211 kts | 285° |
| 2026-04-26 18:53 | 55.31253 | 12.58207 | 6392 ft | 207 kts | 285° |
| 2026-04-26 18:54 | 55.31565 | 12.55785 | 6152 ft | 199 kts | 285° |
| 2026-04-26 18:54 | 55.31864 | 12.53452 | 5882 ft | 196 kts | 285° |
| 2026-04-26 18:54 | 55.32454 | 12.51348 | 5584 ft | 192 kts | 316° |
| 2026-04-26 18:54 | 55.33522 | 12.49924 | 5355 ft | 193 kts | 324° |
| 2026-04-26 18:55 | 55.34646 | 12.48603 | 5098 ft | 195 kts | 324° |
| 2026-04-26 18:55 | 55.35393 | 12.47734 | 4924 ft | 194 kts | 324° |
| 2026-04-26 18:55 | 55.36883 | 12.46012 | 4547 ft | 192 kts | 324° |
| 2026-04-26 18:55 | 55.38006 | 12.44721 | 4301 ft | 192 kts | 324° |
| 2026-04-26 18:56 | 55.38749 | 12.43871 | 4150 ft | 191 kts | 324° |
| 2026-04-26 18:56 | 55.39935 | 12.42904 | 3914 ft | 190 kts | 349° |
| 2026-04-26 18:56 | 55.41242 | 12.43094 | 3734 ft | 186 kts | 5° |
| 2026-04-26 18:56 | 55.42500 | 12.43473 | 3537 ft | 182 kts | 5° |
| 2026-04-26 18:57 | 55.43736 | 12.43840 | 3326 ft | 178 kts | 5° |
| 2026-04-26 18:57 | 55.44537 | 12.44077 | 3178 ft | 175 kts | 5° |
| 2026-04-26 18:57 | 55.46098 | 12.44535 | 2901 ft | 168 kts | 5° |
| 2026-04-26 18:57 | 55.47234 | 12.44867 | 2719 ft | 162 kts | 5° |
| 2026-04-26 18:58 | 55.48343 | 12.45192 | 2608 ft | 161 kts | 5° |
| 2026-04-26 18:58 | 55.49458 | 12.45580 | 2478 ft | 166 kts | 17° |
| 2026-04-26 18:58 | 55.50397 | 12.46749 | 2393 ft | 172 kts | 38° |
| 2026-04-26 18:58 | 55.51321 | 12.48121 | 2144 ft | 172 kts | 37° |
| 2026-04-26 18:59 | 55.52217 | 12.49486 | 1902 ft | 168 kts | 38° |
| 2026-04-26 18:59 | 55.53101 | 12.50855 | 1681 ft | 170 kts | 38° |
| 2026-04-26 18:59 | 55.53981 | 12.52222 | 1462 ft | 168 kts | 39° |
| 2026-04-26 18:59 | 55.54861 | 12.53589 | 1212 ft | 167 kts | 39° |
| 2026-04-26 19:00 | 55.55714 | 12.54913 | 961 ft | 158 kts | 39° |
| 2026-04-26 19:00 | 55.56519 | 12.56162 | 747 ft | 151 kts | 40° |
| 2026-04-26 19:00 | 55.57294 | 12.57362 | 547 ft | 150 kts | 40° |
| 2026-04-26 19:00 | 55.58076 | 12.58563 | 337 ft | 147 kts | 42° |
| 2026-04-26 19:01 | 55.58843 | 12.59748 | 170 ft | 145 kts | 43° |
| 2026-04-26 19:01 | 55.59595 | 12.60916 | 32 ft | 139 kts | 43° |
| 2026-04-26 19:01 | 55.60247 | 12.61935 | 24 ft | 105 kts | 41° |
| 2026-04-26 19:01 | 55.60683 | 12.62610 | 27 ft | 60 kts | 40° |
| 2026-04-26 19:02 | 55.60935 | 12.62851 | 27 ft | 37 kts | 13° |
| 2026-04-26 19:02 | 55.61129 | 12.62940 | 25 ft | 24 kts | 27° |
| 2026-04-26 19:02 | 55.61255 | 12.63119 | 25 ft | 23 kts | 39° |
| 2026-04-26 19:02 | 55.61334 | 12.63238 | 26 ft | 22 kts | 42° |
| 2026-04-26 19:03 | 55.61485 | 12.63475 | 23 ft | 21 kts | 40° |
| 2026-04-26 19:03 | 55.61597 | 12.63644 | 24 ft | 21 kts | 41° |
| 2026-04-26 19:03 | 55.61704 | 12.63811 | 25 ft | 20 kts | 41° |
| 2026-04-26 19:03 | 55.61808 | 12.63973 | 26 ft | 19 kts | 41° |
| 2026-04-26 19:04 | 55.61913 | 12.64103 | 23 ft | 18 kts | 26° |
| 2026-04-26 19:04 | 55.62024 | 12.64194 | 24 ft | 17 kts | 26° |
| 2026-04-26 19:04 | 55.62131 | 12.64285 | 25 ft | 17 kts | 25° |
| 2026-04-26 19:04 | 55.62233 | 12.64377 | 22 ft | 17 kts | 39° |
| 2026-04-26 19:05 | 55.62334 | 12.64732 | 26 ft | 16 kts | 65° |
| 2026-04-26 19:05 | 55.62354 | 12.64866 | 23 ft | 9 kts | 106° |
| 2026-04-26 19:05 | 55.62321 | 12.64961 | 24 ft | 9 kts | 124° |
| 2026-04-26 19:06 | 55.62287 | 12.65051 | 23 ft | 9 kts | 123° |
| 2026-04-26 19:06 | 55.62283 | 12.65149 | 23 ft | 8 kts | 67° |
| 2026-04-26 19:06 | 55.62329 | 12.65203 | 23 ft | 9 kts | 5° |
| 2026-04-26 19:06 | 55.62402 | 12.65199 | 23 ft | 12 kts | 1° |
| 2026-04-26 19:07 | 55.62442 | 12.65305 | 23 ft | 11 kts | 90° |
| 2026-04-26 19:07 | 55.62442 | 12.65444 | 23 ft | 11 kts | 88° |
| 2026-04-26 19:07 | 55.62444 | 12.65578 | 23 ft | 11 kts | 89° |
| 2026-04-26 19:07 | 55.62458 | 12.65677 | 25 ft | 7 kts | 32° |
| 2026-04-26 19:08 | 55.62508 | 12.65682 | 23 ft | 7 kts | 359° |
| 2026-04-26 19:08 | 55.62519 | 12.65682 | 23 ft | 0 kts | 359° |